sensor_id;sensor_type;location;lat;lon;timestamp;P1;durP1;ratioP1;P2;durP2;ratioP2
39308;SDS011;26019;47.510;19.122;2023-08-08T00:05:49;2.08;;;0.80;;
39308;SDS011;26019;47.510;19.122;2023-08-08T00:25:54;0.90;;;0.50;;
39308;SDS011;26019;47.510;19.122;2023-08-08T00:35:56;1.07;;;0.63;;
39308;SDS011;26019;47.510;19.122;2023-08-08T00:45:57;0.67;;;0.60;;
39308;SDS011;26019;47.510;19.122;2023-08-08T00:55:59;1.27;;;0.68;;
39308;SDS011;26019;47.510;19.122;2023-08-08T01:06:03;0.77;;;0.60;;
39308;SDS011;26019;47.510;19.122;2023-08-08T01:16:17;0.80;;;0.63;;
39308;SDS011;26019;47.510;19.122;2023-08-08T01:26:21;4.60;;;1.05;;
39308;SDS011;26019;47.510;19.122;2023-08-08T01:36:34;0.88;;;0.80;;
39308;SDS011;26019;47.510;19.122;2023-08-08T01:46:40;0.98;;;0.88;;
39308;SDS011;26019;47.510;19.122;2023-08-08T01:56:42;1.03;;;0.60;;
39308;SDS011;26019;47.510;19.122;2023-08-08T02:06:44;2.27;;;0.90;;
39308;SDS011;26019;47.510;19.122;2023-08-08T02:16:47;3.00;;;1.27;;
39308;SDS011;26019;47.510;19.122;2023-08-08T02:26:48;1.67;;;0.90;;
39308;SDS011;26019;47.510;19.122;2023-08-08T02:36:50;3.80;;;1.23;;
39308;SDS011;26019;47.510;19.122;2023-08-08T02:46:52;1.48;;;0.95;;
39308;SDS011;26019;47.510;19.122;2023-08-08T02:56:54;3.33;;;1.63;;
39308;SDS011;26019;47.510;19.122;2023-08-08T03:06:56;2.85;;;1.33;;
39308;SDS011;26019;47.510;19.122;2023-08-08T03:16:57;3.00;;;1.50;;
39308;SDS011;26019;47.510;19.122;2023-08-08T03:26:59;2.17;;;1.33;;
39308;SDS011;26019;47.510;19.122;2023-08-08T03:37:03;1.83;;;1.55;;
39308;SDS011;26019;47.510;19.122;2023-08-08T03:47:06;11.00;;;2.15;;
39308;SDS011;26019;47.510;19.122;2023-08-08T03:57:19;2.28;;;1.10;;
39308;SDS011;26019;47.510;19.122;2023-08-08T04:07:21;5.85;;;1.85;;
39308;SDS011;26019;47.510;19.122;2023-08-08T04:17:23;2.55;;;1.15;;
39308;SDS011;26019;47.510;19.122;2023-08-08T04:27:24;2.15;;;1.55;;
39308;SDS011;26019;47.510;19.122;2023-08-08T04:37:26;1.73;;;1.30;;
39308;SDS011;26019;47.510;19.122;2023-08-08T04:47:28;4.45;;;1.58;;
39308;SDS011;26019;47.510;19.122;2023-08-08T04:57:30;2.93;;;1.30;;
39308;SDS011;26019;47.510;19.122;2023-08-08T05:07:32;2.07;;;1.50;;
39308;SDS011;26019;47.510;19.122;2023-08-08T05:17:34;3.80;;;1.20;;
39308;SDS011;26019;47.510;19.122;2023-08-08T05:27:36;2.83;;;1.60;;
39308;SDS011;26019;47.510;19.122;2023-08-08T05:37:38;3.00;;;1.50;;
39308;SDS011;26019;47.510;19.122;2023-08-08T05:47:40;2.15;;;1.38;;
39308;SDS011;26019;47.510;19.122;2023-08-08T05:57:42;1.83;;;1.40;;
39308;SDS011;26019;47.510;19.122;2023-08-08T06:07:45;5.93;;;1.57;;
39308;SDS011;26019;47.510;19.122;2023-08-08T06:17:46;3.22;;;1.35;;
39308;SDS011;26019;47.510;19.122;2023-08-08T06:27:49;2.67;;;1.17;;
39308;SDS011;26019;47.510;19.122;2023-08-08T06:37:51;2.35;;;1.70;;
39308;SDS011;26019;47.510;19.122;2023-08-08T06:47:53;4.07;;;1.60;;
39308;SDS011;26019;47.510;19.122;2023-08-08T06:57:54;2.63;;;1.58;;
39308;SDS011;26019;47.510;19.122;2023-08-08T07:07:56;6.82;;;1.48;;
39308;SDS011;26019;47.510;19.122;2023-08-08T07:17:58;3.03;;;1.50;;
39308;SDS011;26019;47.510;19.122;2023-08-08T07:28:02;3.03;;;1.10;;
39308;SDS011;26019;47.510;19.122;2023-08-08T07:38:04;4.10;;;1.45;;
39308;SDS011;26019;47.510;19.122;2023-08-08T07:58:07;4.43;;;1.50;;
39308;SDS011;26019;47.510;19.122;2023-08-08T08:18:10;2.72;;;1.80;;
39308;SDS011;26019;47.510;19.122;2023-08-08T08:28:16;4.80;;;1.92;;
39308;SDS011;26019;47.510;19.122;2023-08-08T08:38:19;2.22;;;1.30;;
39308;SDS011;26019;47.510;19.122;2023-08-08T08:48:21;2.47;;;1.40;;
39308;SDS011;26019;47.510;19.122;2023-08-08T08:58:24;2.88;;;1.10;;
39308;SDS011;26019;47.510;19.122;2023-08-08T09:08:27;3.95;;;1.33;;
39308;SDS011;26019;47.510;19.122;2023-08-08T09:18:29;2.88;;;1.75;;
39308;SDS011;26019;47.510;19.122;2023-08-08T09:28:32;3.72;;;1.20;;
39308;SDS011;26019;47.510;19.122;2023-08-08T09:38:35;2.13;;;1.42;;
39308;SDS011;26019;47.510;19.122;2023-08-08T09:48:37;6.28;;;1.63;;
39308;SDS011;26019;47.510;19.122;2023-08-08T09:58:41;1.33;;;1.02;;
39308;SDS011;26019;47.510;19.122;2023-08-08T10:08:43;2.67;;;1.55;;
39308;SDS011;26019;47.510;19.122;2023-08-08T10:18:46;2.17;;;1.35;;
39308;SDS011;26019;47.510;19.122;2023-08-08T10:29:08;2.30;;;1.33;;
39308;SDS011;26019;47.510;19.122;2023-08-08T10:49:27;5.57;;;1.67;;
39308;SDS011;26019;47.510;19.122;2023-08-08T10:59:38;2.95;;;1.17;;
39308;SDS011;26019;47.510;19.122;2023-08-08T11:09:40;2.67;;;1.27;;
39308;SDS011;26019;47.510;19.122;2023-08-08T11:19:45;3.30;;;1.35;;
39308;SDS011;26019;47.510;19.122;2023-08-08T11:29:51;2.03;;;1.10;;
39308;SDS011;26019;47.510;19.122;2023-08-08T11:39:54;1.35;;;1.00;;
39308;SDS011;26019;47.510;19.122;2023-08-08T11:50:04;1.58;;;1.10;;
39308;SDS011;26019;47.510;19.122;2023-08-08T12:00:09;4.40;;;1.58;;
39308;SDS011;26019;47.510;19.122;2023-08-08T12:10:21;2.17;;;0.73;;
39308;SDS011;26019;47.510;19.122;2023-08-08T12:20:27;2.38;;;1.30;;
39308;SDS011;26019;47.510;19.122;2023-08-08T12:30:31;1.95;;;1.10;;
39308;SDS011;26019;47.510;19.122;2023-08-08T12:40:33;1.95;;;1.13;;
39308;SDS011;26019;47.510;19.122;2023-08-08T12:55:22;3.10;;;1.25;;
39308;SDS011;26019;47.510;19.122;2023-08-08T13:05:34;2.78;;;1.30;;
39308;SDS011;26019;47.510;19.122;2023-08-08T13:15:36;1.50;;;1.40;;
39308;SDS011;26019;47.510;19.122;2023-08-08T13:25:39;2.17;;;1.38;;
39308;SDS011;26019;47.510;19.122;2023-08-08T13:35:42;4.45;;;1.48;;
39308;SDS011;26019;47.510;19.122;2023-08-08T13:45:44;3.03;;;1.52;;
39308;SDS011;26019;47.510;19.122;2023-08-08T13:55:48;2.53;;;1.65;;
39308;SDS011;26019;47.510;19.122;2023-08-08T14:05:50;3.58;;;2.10;;
39308;SDS011;26019;47.510;19.122;2023-08-08T14:15:55;2.22;;;1.85;;
39308;SDS011;26019;47.510;19.122;2023-08-08T14:25:57;1.85;;;1.20;;
39308;SDS011;26019;47.510;19.122;2023-08-08T14:35:59;7.28;;;1.60;;
39308;SDS011;26019;47.510;19.122;2023-08-08T14:46:01;4.50;;;2.72;;
39308;SDS011;26019;47.510;19.122;2023-08-08T14:56:03;6.03;;;1.40;;
39308;SDS011;26019;47.510;19.122;2023-08-08T15:06:04;4.13;;;1.60;;
39308;SDS011;26019;47.510;19.122;2023-08-08T15:16:06;2.00;;;1.10;;
39308;SDS011;26019;47.510;19.122;2023-08-08T15:26:08;2.97;;;1.35;;
39308;SDS011;26019;47.510;19.122;2023-08-08T15:36:10;1.27;;;1.17;;
39308;SDS011;26019;47.510;19.122;2023-08-08T15:46:12;2.05;;;1.20;;
39308;SDS011;26019;47.510;19.122;2023-08-08T15:56:14;1.15;;;1.05;;
39308;SDS011;26019;47.510;19.122;2023-08-08T16:06:16;4.13;;;1.25;;
39308;SDS011;26019;47.510;19.122;2023-08-08T16:16:19;4.00;;;1.40;;
39308;SDS011;26019;47.510;19.122;2023-08-08T16:26:21;4.28;;;1.38;;
39308;SDS011;26019;47.510;19.122;2023-08-08T16:36:23;1.88;;;1.00;;
39308;SDS011;26019;47.510;19.122;2023-08-08T16:46:24;2.50;;;1.17;;
39308;SDS011;26019;47.510;19.122;2023-08-08T16:56:27;2.92;;;1.45;;
39308;SDS011;26019;47.510;19.122;2023-08-08T17:06:29;2.42;;;1.13;;
39308;SDS011;26019;47.510;19.122;2023-08-08T17:16:37;1.90;;;1.33;;
39308;SDS011;26019;47.510;19.122;2023-08-08T17:26:45;2.63;;;1.30;;
39308;SDS011;26019;47.510;19.122;2023-08-08T17:36:48;6.95;;;1.77;;
39308;SDS011;26019;47.510;19.122;2023-08-08T17:46:51;2.92;;;1.75;;
39308;SDS011;26019;47.510;19.122;2023-08-08T17:56:53;2.92;;;1.65;;
39308;SDS011;26019;47.510;19.122;2023-08-08T18:06:57;2.72;;;1.85;;
39308;SDS011;26019;47.510;19.122;2023-08-08T18:16:59;4.82;;;1.63;;
39308;SDS011;26019;47.510;19.122;2023-08-08T18:27:04;4.15;;;2.38;;
39308;SDS011;26019;47.510;19.122;2023-08-08T18:37:06;3.55;;;2.30;;
39308;SDS011;26019;47.510;19.122;2023-08-08T18:47:09;6.10;;;3.75;;
39308;SDS011;26019;47.510;19.122;2023-08-08T18:57:12;4.75;;;2.25;;
39308;SDS011;26019;47.510;19.122;2023-08-08T19:07:17;5.43;;;2.95;;
39308;SDS011;26019;47.510;19.122;2023-08-08T19:17:20;6.18;;;3.03;;
39308;SDS011;26019;47.510;19.122;2023-08-08T19:27:24;7.25;;;2.90;;
39308;SDS011;26019;47.510;19.122;2023-08-08T19:37:27;7.30;;;3.08;;
39308;SDS011;26019;47.510;19.122;2023-08-08T19:47:30;8.43;;;3.20;;
39308;SDS011;26019;47.510;19.122;2023-08-08T19:57:32;5.75;;;3.75;;
39308;SDS011;26019;47.510;19.122;2023-08-08T20:07:34;7.43;;;2.60;;
39308;SDS011;26019;47.510;19.122;2023-08-08T20:17:36;3.33;;;2.17;;
39308;SDS011;26019;47.510;19.122;2023-08-08T20:27:38;4.00;;;2.50;;
39308;SDS011;26019;47.510;19.122;2023-08-08T20:37:40;7.73;;;3.37;;
39308;SDS011;26019;47.510;19.122;2023-08-08T20:47:42;5.90;;;2.88;;
39308;SDS011;26019;47.510;19.122;2023-08-08T20:57:46;7.03;;;3.43;;
39308;SDS011;26019;47.510;19.122;2023-08-08T21:07:48;9.63;;;4.93;;
39308;SDS011;26019;47.510;19.122;2023-08-08T21:17:51;10.03;;;3.87;;
39308;SDS011;26019;47.510;19.122;2023-08-08T21:27:55;13.70;;;4.60;;
39308;SDS011;26019;47.510;19.122;2023-08-08T21:37:58;6.80;;;3.63;;
39308;SDS011;26019;47.510;19.122;2023-08-08T21:47:59;7.05;;;3.55;;
39308;SDS011;26019;47.510;19.122;2023-08-08T21:58:01;10.73;;;4.10;;
39308;SDS011;26019;47.510;19.122;2023-08-08T22:08:04;6.73;;;3.40;;
39308;SDS011;26019;47.510;19.122;2023-08-08T22:18:17;8.83;;;3.53;;
39308;SDS011;26019;47.510;19.122;2023-08-08T22:28:20;6.95;;;3.50;;
39308;SDS011;26019;47.510;19.122;2023-08-08T22:38:22;13.23;;;4.10;;
39308;SDS011;26019;47.510;19.122;2023-08-08T22:48:24;7.10;;;3.17;;
39308;SDS011;26019;47.510;19.122;2023-08-08T22:58:25;6.97;;;4.03;;
39308;SDS011;26019;47.510;19.122;2023-08-08T23:08:27;6.78;;;3.60;;
39308;SDS011;26019;47.510;19.122;2023-08-08T23:18:30;9.55;;;3.78;;
39308;SDS011;26019;47.510;19.122;2023-08-08T23:28:32;7.25;;;3.90;;
39308;SDS011;26019;47.510;19.122;2023-08-08T23:38:33;7.88;;;3.78;;
39308;SDS011;26019;47.510;19.122;2023-08-08T23:48:35;8.27;;;4.07;;
39308;SDS011;26019;47.510;19.122;2023-08-08T23:58:38;9.35;;;3.88;;
